Time;durP1;ratioP1;P1;durP2;ratioP2;P2;SDS_P1;SDS_P2;PMS_P1;PMS_P2;Temp;Humidity;BMP_temperature;BMP_pressure;BME280_temperature;BME280_humidity;BME280_pressure;Samples;Min_cycle;Max_cycle;Signal;HPM_P1;HPM_P2
2021/06/12 00:00:08;;;;;;;4.30;3.70;;;;;;;17.91;100.00;99242.56;10544766;28;20181;-78
2021/06/12 00:05:27;;;;;;;6.17;3.93;;;;;;;17.75;100.00;99253.78;10544648;28;20205;-77
2021/06/12 00:10:46;;;;;;;3.90;3.57;;;;;;;17.58;100.00;99237.63;10527307;28;20638;-78
2021/06/12 00:16:05;;;;;;;3.93;3.63;;;;;;;17.55;100.00;99246.09;10543632;28;20237;-77
2021/06/12 00:21:24;;;;;;;3.50;3.20;;;;;;;17.45;100.00;99247.94;10528768;28;20177;-78
2021/06/12 00:26:43;;;;;;;6.10;4.27;;;;;;;17.20;100.00;99245.06;10542625;28;20654;-78
2021/06/12 00:32:02;;;;;;;4.30;3.90;;;;;;;17.09;100.00;99243.75;10542656;28;20261;-78
2021/06/12 00:37:22;;;;;;;3.60;2.93;;;;;;;17.37;100.00;99243.03;10543445;28;20178;-77
2021/06/12 00:42:42;;;;;;;4.60;3.90;;;;;;;17.38;100.00;99236.25;10542944;28;20632;-78
2021/06/12 00:48:02;;;;;;;3.57;3.27;;;;;;;17.25;100.00;99250.06;10542976;28;20167;-78
2021/06/12 00:53:37;;;;;;;4.47;4.07;;;;;;;17.27;100.00;99241.28;10541298;28;20206;-79
2021/06/12 00:58:56;;;;;;;7.60;4.43;;;;;;;17.34;100.00;99244.69;10542457;28;20182;-78
2021/06/12 01:04:15;;;;;;;3.60;3.30;;;;;;;17.43;100.00;99244.84;10542413;28;20185;-79
2021/06/12 01:09:35;;;;;;;5.80;3.50;;;;;;;17.44;100.00;99254.75;10539738;28;20616;-78
2021/06/12 01:14:58;;;;;;;3.83;3.53;;;;;;;17.35;100.00;99243.47;10541361;28;20197;-79
2021/06/12 01:20:41;;;;;;;4.47;4.07;;;;;;;17.35;100.00;99239.91;10540673;28;20178;-79
2021/06/12 01:26:22;;;;;;;4.37;3.87;;;;;;;17.31;100.00;99237.22;10524613;28;20616;-80
2021/06/12 01:31:43;;;;;;;4.30;3.90;;;;;;;17.29;100.00;99236.88;10525705;28;20182;-79
2021/06/12 01:37:05;;;;;;;3.43;3.13;;;;;;;17.28;100.00;99229.78;10540137;28;20308;-79
2021/06/12 01:42:25;;;;;;;3.90;3.60;;;;;;;17.26;100.00;99237.72;10540005;28;20547;-79
2021/06/12 01:47:46;;;;;;;5.13;3.67;;;;;;;17.26;100.00;99232.16;10540205;28;20178;-78
2021/06/12 01:53:07;;;;;;;5.03;3.87;;;;;;;17.24;100.00;99231.06;10523658;28;20206;-79
2021/06/12 01:58:27;;;;;;;4.10;3.40;;;;;;;17.19;100.00;99224.03;10540310;28;20177;-77
2021/06/12 02:03:48;;;;;;;4.37;3.97;;;;;;;17.28;100.00;99229.78;10540072;28;20178;-79
2021/06/12 02:09:09;;;;;;;4.80;4.37;;;;;;;17.27;100.00;99235.72;10538605;28;20178;-77
2021/06/12 02:14:28;;;;;;;4.33;3.63;;;;;;;17.20;100.00;99231.16;10539338;28;20217;-77
2021/06/12 02:19:47;;;;;;;4.47;3.60;;;;;;;17.02;100.00;99222.53;10524212;28;20178;-77
2021/06/12 02:25:08;;;;;;;5.43;4.00;;;;;;;16.90;100.00;99216.91;10538365;28;20166;-77
2021/06/12 02:30:30;;;;;;;4.37;3.60;;;;;;;16.88;100.00;99216.56;10539040;28;20206;-77
2021/06/12 02:35:49;;;;;;;9.97;4.80;;;;;;;16.64;100.00;99225.56;10538794;28;20233;-77
2021/06/12 02:41:08;;;;;;;5.27;4.20;;;;;;;16.50;100.00;99217.56;10522009;28;20170;-77
2021/06/12 02:46:30;;;;;;;6.27;3.73;;;;;;;16.63;100.00;99232.31;10523699;28;20231;-77
2021/06/12 02:51:57;;;;;;;3.53;3.27;;;;;;;16.32;100.00;99231.09;10523388;28;20174;-78
2021/06/12 02:57:17;;;;;;;3.80;3.50;;;;;;;16.39;100.00;99237.28;10522234;28;20182;-77
2021/06/12 03:02:39;;;;;;;4.67;3.67;;;;;;;16.28;100.00;99228.38;10537422;28;20167;-78
2021/06/12 03:08:00;;;;;;;4.10;3.80;;;;;;;16.28;100.00;99227.63;10522041;28;20166;-77
2021/06/12 03:13:24;;;;;;;4.57;3.97;;;;;;;16.10;100.00;99230.03;10522855;28;20198;-78
2021/06/12 03:18:46;;;;;;;5.17;4.67;;;;;;;16.09;100.00;99232.03;10522980;28;20212;-79
2021/06/12 03:24:06;;;;;;;5.90;4.27;;;;;;;16.16;100.00;99229.09;10521702;28;20166;-77
2021/06/12 03:29:26;;;;;;;5.50;4.87;;;;;;;16.15;100.00;99230.28;10537991;28;20182;-77
2021/06/12 03:34:46;;;;;;;5.40;4.77;;;;;;;16.18;100.00;99229.44;10537742;28;20222;-77
2021/06/12 03:40:06;;;;;;;5.43;4.93;;;;;;;16.33;100.00;99230.69;10536617;28;20269;-77
2021/06/12 03:45:27;;;;;;;7.30;4.70;;;;;;;16.31;100.00;99227.56;10543532;28;20182;-79
2021/06/12 03:50:47;;;;;;;4.50;4.10;;;;;;;16.14;100.00;99231.50;10530120;28;20273;-77
2021/06/12 03:56:06;;;;;;;6.07;5.17;;;;;;;16.04;100.00;99240.09;10543106;28;20244;-78
2021/06/12 04:01:25;;;;;;;11.73;5.53;;;;;;;16.03;100.00;99238.53;10543838;28;20808;-78
2021/06/12 04:06:44;;;;;;;5.77;4.57;;;;;;;16.07;100.00;99251.09;10544508;28;20174;-78
2021/06/12 04:12:03;;;;;;;5.77;5.23;;;;;;;16.25;100.00;99247.91;10543358;28;20257;-79
2021/06/12 04:17:22;;;;;;;4.40;4.10;;;;;;;16.35;100.00;99255.22;10544197;28;20636;-79
2021/06/12 04:22:42;;;;;;;4.80;4.40;;;;;;;16.31;100.00;99260.09;10542960;28;20182;-78
2021/06/12 04:28:01;;;;;;;5.30;4.80;;;;;;;16.46;100.00;99266.88;10543651;28;20174;-78
2021/06/12 04:33:20;;;;;;;9.73;4.67;;;;;;;16.47;100.00;99268.44;10543195;28;20229;-78
2021/06/12 04:38:39;;;;;;;5.87;5.17;;;;;;;16.61;100.00;99248.63;10541703;28;20198;-79
2021/06/12 04:43:58;;;;;;;4.77;4.27;;;;;;;16.68;100.00;99246.44;10543195;28;20174;-79
2021/06/12 04:49:17;;;;;;;5.10;4.60;;;;;;;16.83;100.00;99256.78;10542062;28;20190;-77
2021/06/12 04:54:36;;;;;;;5.63;4.70;;;;;;;16.98;100.00;99266.28;10541094;28;20213;-78
2021/06/12 04:59:55;;;;;;;6.67;6.00;;;;;;;17.10;100.00;99254.47;10542645;28;20170;-78
2021/06/12 05:05:14;;;;;;;4.80;3.73;;;;;;;17.25;100.00;99250.06;10542225;28;20178;-78
2021/06/12 05:10:33;;;;;;;5.97;5.47;;;;;;;17.46;100.00;99257.06;10540904;28;20178;-78
2021/06/12 05:15:52;;;;;;;5.73;4.87;;;;;;;17.69;100.00;99249.22;10541340;28;20574;-79
2021/06/12 05:21:13;;;;;;;8.23;5.87;;;;;;;17.90;100.00;99251.38;10540573;28;20170;-78
2021/06/12 05:26:32;;;;;;;7.70;5.03;;;;;;;18.26;100.00;99254.63;10524696;28;20234;-78
2021/06/12 05:31:51;;;;;;;4.67;4.27;;;;;;;18.49;100.00;99250.28;10541248;28;20182;-78
2021/06/12 05:37:11;;;;;;;7.23;5.50;;;;;;;19.02;100.00;99251.28;10525029;28;20618;-78
2021/06/12 05:42:31;;;;;;;7.57;6.10;;;;;;;19.26;100.00;99247.63;10540468;28;20264;-79
2021/06/12 05:47:50;;;;;;;6.30;5.20;;;;;;;19.49;100.00;99252.75;10525385;28;20170;-78
2021/06/12 05:53:09;;;;;;;7.13;4.70;;;;;;;19.47;100.00;99255.22;10523757;28;20193;-78
2021/06/12 05:58:28;;;;;;;7.20;5.80;;;;;;;19.64;100.00;99259.38;10524890;28;20182;-77
2021/06/12 06:03:47;;;;;;;5.53;5.03;;;;;;;19.84;100.00;99259.81;10524685;28;20182;-78
2021/06/12 06:09:06;;;;;;;6.60;6.10;;;;;;;19.86;100.00;99265.72;10538293;28;20245;-77
2021/06/12 06:14:25;;;;;;;5.37;4.57;;;;;;;19.97;100.00;99255.75;10539503;28;20201;-77
2021/06/12 06:19:44;;;;;;;6.50;5.90;;;;;;;20.32;100.00;99254.31;10539749;28;20620;-78
2021/06/12 06:25:05;;;;;;;6.37;5.73;;;;;;;20.64;100.00;99253.81;10538370;28;20196;-77
2021/06/12 06:30:24;;;;;;;5.30;4.97;;;;;;;21.02;100.00;99250.19;10538437;28;20182;-77
2021/06/12 06:35:43;;;;;;;6.43;5.83;;;;;;;21.26;100.00;99259.53;10538811;28;20217;-78
2021/06/12 06:41:02;;;;;;;6.60;5.50;;;;;;;21.54;100.00;99268.69;10537638;28;20257;-77
2021/06/12 06:46:22;;;;;;;6.13;5.63;;;;;;;21.70;100.00;99275.56;10538933;28;20629;-78
2021/06/12 06:51:40;;;;;;;5.90;4.80;;;;;;;22.27;100.00;99274.47;10538893;28;20170;-77
2021/06/12 06:57:00;;;;;;;5.70;5.20;;;;;;;22.80;100.00;99267.84;10536947;28;20202;-77
2021/06/12 07:02:19;;;;;;;5.90;5.37;;;;;;;23.04;100.00;99270.66;10538676;28;20182;-77
2021/06/12 07:07:38;;;;;;;6.10;5.50;;;;;;;23.09;100.00;99264.41;10537448;28;20206;-77
2021/06/12 07:13:01;;;;;;;5.40;4.90;;;;;;;23.06;98.74;99270.97;10523160;28;20672;-77
2021/06/12 07:18:20;;;;;;;5.20;4.80;;;;;;;22.64;100.00;99270.25;10541180;28;20216;-77
2021/06/12 07:23:39;;;;;;;6.63;5.70;;;;;;;22.42;100.00;99269.75;10545000;28;20624;-77
2021/06/12 07:28:58;;;;;;;5.40;4.90;;;;;;;22.69;100.00;99272.44;10545983;28;20272;-78
2021/06/12 07:34:18;;;;;;;6.30;5.70;;;;;;;23.30;97.25;99266.13;10530202;28;20261;-77
2021/06/12 07:39:37;;;;;;;6.80;5.33;;;;;;;23.80;95.02;99265.84;10543352;28;20170;-77
2021/06/12 07:44:56;;;;;;;6.60;6.10;;;;;;;24.17;100.00;99256.53;10545578;28;20178;-77
2021/06/12 07:50:15;;;;;;;5.77;5.27;;;;;;;24.77;93.57;99268.75;10545387;28;20257;-78
2021/06/12 07:55:35;;;;;;;4.67;4.33;;;;;;;25.14;85.90;99266.97;10543433;28;20210;-78
2021/06/12 08:00:54;;;;;;;6.47;4.70;;;;;;;24.89;85.46;99261.22;10529586;28;20178;-77
2021/06/12 08:06:13;;;;;;;5.17;4.30;;;;;;;24.69;70.68;99258.41;10529555;28;20174;-78
2021/06/12 08:11:32;;;;;;;6.57;4.90;;;;;;;25.48;66.52;99252.03;10543270;28;20182;-78
2021/06/12 08:16:51;;;;;;;3.83;3.63;;;;;;;25.70;63.74;99255.84;10543456;28;20675;-77
2021/06/12 08:22:11;;;;;;;5.93;4.30;;;;;;;25.59;67.38;99252.94;10544270;28;20174;-77
2021/06/12 08:27:30;;;;;;;4.70;4.30;;;;;;;26.38;63.24;99240.59;10527668;28;20174;-77
2021/06/12 08:32:49;;;;;;;4.77;4.37;;;;;;;26.13;58.87;99240.66;10543270;28;20305;-77
2021/06/12 08:38:08;;;;;;;7.70;4.27;;;;;;;25.78;62.38;99228.03;10542235;28;20548;-79
2021/06/12 08:43:28;;;;;;;6.33;4.73;;;;;;;26.16;59.37;99229.13;10543332;28;20178;-80
2021/06/12 08:48:48;;;;;;;5.33;4.03;;;;;;;26.14;59.41;99217.59;10543037;28;20643;-79
2021/06/12 08:54:07;;;;;;;4.53;4.13;;;;;;;25.59;60.76;99227.56;10541305;28;20202;-79
2021/06/12 08:59:31;;;;;;;3.40;3.10;;;;;;;25.65;60.74;99225.56;10542580;28;20170;-80
2021/06/12 09:04:53;;;;;;;3.53;3.27;;;;;;;26.27;60.95;99228.44;10542243;28;20177;-79
2021/06/12 09:10:23;;;;;;;3.63;3.33;;;;;;;26.74;57.54;99226.50;10540982;28;20174;-80
2021/06/12 09:15:51;;;;;;;4.13;3.83;;;;;;;27.08;55.85;99225.41;10541507;28;20198;-79
2021/06/12 09:21:31;;;;;;;4.23;3.83;;;;;;;27.16;58.12;99237.00;10526469;28;20174;-81
2021/06/12 09:26:53;;;;;;;4.77;4.37;;;;;;;27.36;55.52;99237.59;10539299;28;20214;-78
2021/06/12 09:32:17;;;;;;;5.00;3.57;;;;;;;27.26;54.89;99247.56;10541015;28;20170;-79
2021/06/12 09:37:37;;;;;;;2.83;2.63;;;;;;;26.15;57.47;99238.13;10539830;28;20182;-79
2021/06/12 09:42:59;;;;;;;3.43;3.13;;;;;;;25.93;59.92;99229.44;10524852;28;20178;-79
2021/06/12 09:48:19;;;;;;;2.20;2.10;;;;;;;26.45;57.14;99225.28;10540898;28;20174;-77
2021/06/12 09:53:49;;;;;;;3.73;2.07;;;;;;;26.81;54.75;99223.22;10539072;28;20206;-77
2021/06/12 09:59:18;;;;;;;3.97;2.50;;;;;;;26.94;55.48;99219.91;10524859;28;20182;-80
2021/06/12 10:04:55;;;;;;;2.90;2.60;;;;;;;27.82;54.21;99221.03;10524968;28;20178;-79
2021/06/12 10:10:15;;;;;;;2.40;2.20;;;;;;;27.65;50.63;99212.53;10522976;28;20182;-79
2021/06/12 10:15:35;;;;;;;2.00;1.90;;;;;;;27.90;51.10;99217.19;10539266;28;20634;-78
2021/06/12 10:20:54;;;;;;;2.47;2.10;;;;;;;27.47;50.85;99226.31;10539635;28;20553;-78
2021/06/12 10:26:16;;;;;;;3.83;2.37;;;;;;;27.58;49.38;99226.34;10522744;28;20538;-77
2021/06/12 10:31:40;;;;;;;2.40;2.20;;;;;;;27.95;46.40;99218.44;10539258;28;20174;-77
2021/06/12 10:37:03;;;;;;;1.73;1.63;;;;;;;27.74;43.77;99203.00;10523107;28;20308;-78
2021/06/12 10:42:23;;;;;;;2.13;1.87;;;;;;;27.30;46.32;99207.78;10538005;28;20190;-78
2021/06/12 10:47:49;;;;;;;2.30;2.00;;;;;;;27.50;46.24;99209.09;10538438;28;20178;-79
2021/06/12 10:53:20;;;;;;;2.60;2.40;;;;;;;27.87;44.02;99211.75;10541941;28;20645;-78
2021/06/12 10:58:40;;;;;;;2.60;2.40;;;;;;;27.95;44.85;99213.59;10532156;28;20200;-77
2021/06/12 11:04:15;;;;;;;3.00;2.17;;;;;;;27.85;45.89;99203.81;10547168;28;20170;-78
2021/06/12 11:09:35;;;;;;;2.57;2.37;;;;;;;27.63;44.93;99186.03;10530547;28;20215;-79
2021/06/12 11:15:04;;;;;;;3.07;2.87;;;;;;;27.50;47.34;99197.03;10531117;28;20209;-79
2021/06/12 11:20:25;;;;;;;2.60;2.40;;;;;;;26.92;49.77;99199.91;10531083;28;20175;-78
2021/06/12 11:25:48;;;;;;;4.47;3.17;;;;;;;27.20;50.13;99201.59;10529706;28;20245;-77
2021/06/12 11:31:29;;;;;;;3.23;3.03;;;;;;;28.02;48.01;99198.94;10530746;28;20182;-77
2021/06/12 11:37:10;;;;;;;3.10;2.90;;;;;;;28.36;47.30;99198.41;10545158;28;20316;-77
2021/06/12 11:42:46;;;;;;;3.17;2.90;;;;;;;28.21;46.34;99191.50;10545004;28;20261;-77
2021/06/12 11:48:18;;;;;;;4.23;3.73;;;;;;;28.67;44.92;99188.84;10545584;28;20178;-77
2021/06/12 11:53:37;;;;;;;3.70;3.40;;;;;;;28.90;46.76;99181.81;10528505;28;20672;-77
2021/06/12 11:58:59;;;;;;;4.30;4.00;;;;;;;28.47;45.03;99167.25;10544983;28;20173;-76
2021/06/12 12:04:21;;;;;;;3.53;3.33;;;;;;;28.68;45.26;99174.16;10544093;28;20166;-77
2021/06/12 12:09:45;;;;;;;3.30;3.03;;;;;;;27.92;46.08;99168.59;10528068;28;20178;-77
2021/06/12 12:15:05;;;;;;;3.40;3.20;;;;;;;28.08;48.71;99170.63;10528495;28;20245;-77
2021/06/12 12:20:24;;;;;;;3.67;3.37;;;;;;;29.00;45.53;99160.41;10544221;28;20170;-77
2021/06/12 12:25:43;;;;;;;3.90;3.50;;;;;;;27.62;48.97;99170.38;10542724;28;20182;-76
2021/06/12 12:31:08;;;;;;;6.90;4.33;;;;;;;26.75;52.21;99157.47;10528531;28;20174;-77
2021/06/12 12:36:28;;;;;;;4.40;4.00;;;;;;;27.81;52.42;99155.22;10542886;28;20222;-77
2021/06/12 12:41:56;;;;;;;4.33;3.67;;;;;;;28.27;51.12;99150.56;10542043;28;20197;-77
2021/06/12 12:47:23;;;;;;;4.77;3.70;;;;;;;29.21;47.10;99151.03;10543109;28;20166;-78
2021/06/12 12:52:42;;;;;;;3.13;2.93;;;;;;;28.12;48.26;99148.50;10541578;28;20178;-77
2021/06/12 12:58:03;;;;;;;3.27;3.07;;;;;;;28.82;48.27;99147.63;10541755;28;20566;-78
2021/06/12 13:03:22;;;;;;;3.90;3.50;;;;;;;29.58;46.69;99142.84;10542509;28;20181;-78
2021/06/12 13:08:41;;;;;;;4.00;3.77;;;;;;;28.30;46.48;99138.22;10525644;28;20556;-79
2021/06/12 13:14:00;;;;;;;5.43;4.13;;;;;;;27.76;47.47;99144.66;10541870;28;20209;-80
2021/06/12 13:19:19;;;;;;;4.03;3.23;;;;;;;27.53;50.79;99147.97;10541622;28;20178;-79
2021/06/12 13:24:53;;;;;;;4.57;4.00;;;;;;;27.70;50.90;99152.38;10540334;28;20178;-80
2021/06/12 13:30:23;;;;;;;3.27;2.97;;;;;;;27.36;52.89;99160.50;10541373;28;20182;-79
2021/06/12 13:35:47;;;;;;;4.37;3.10;;;;;;;26.53;51.74;99164.28;10525416;28;20226;-79
2021/06/12 13:41:10;;;;;;;2.30;2.10;;;;;;;26.40;52.92;99166.78;10539281;28;20182;-79
2021/06/12 13:46:29;;;;;;;1.77;1.67;;;;;;;27.27;48.50;99163.56;10540905;28;20178;-80
2021/06/12 13:51:48;;;;;;;3.30;1.40;;;;;;;26.92;48.94;99172.44;10525122;28;20209;-80
2021/06/12 13:57:07;;;;;;;1.77;1.67;;;;;;;26.19;50.71;99182.22;10523086;28;20205;-80
2021/06/12 14:02:26;;;;;;;3.00;1.80;;;;;;;25.87;49.54;99180.69;10524999;28;20174;-80
2021/06/12 14:07:45;;;;;;;2.13;1.93;;;;;;;25.97;49.32;99196.16;10538712;28;20257;-80
2021/06/12 14:13:05;;;;;;;1.67;1.57;;;;;;;26.98;47.21;99180.94;10539826;28;20601;-79
2021/06/12 14:18:24;;;;;;;1.60;1.40;;;;;;;26.96;43.28;99184.25;10539674;28;20530;-79
2021/06/12 14:23:43;;;;;;;3.57;1.40;;;;;;;26.79;45.25;99200.34;10523164;28;20214;-79
2021/06/12 14:29:03;;;;;;;1.40;1.30;;;;;;;26.46;46.87;99209.91;10523556;28;20186;-79
2021/06/12 14:34:22;;;;;;;1.33;1.23;;;;;;;25.83;48.66;99223.22;10538269;28;20234;-77
2021/06/12 14:39:41;;;;;;;1.80;1.50;;;;;;;25.12;48.92;99238.53;10538014;28;20174;-78
2021/06/12 14:45:01;;;;;;;2.00;1.50;;;;;;;24.42;51.14;99250.28;10518009;28;20166;-77
2021/06/12 14:50:20;;;;;;;3.23;1.80;;;;;;;24.31;53.19;99255.75;10523581;28;20171;-77
2021/06/12 14:55:39;;;;;;;2.30;2.13;;;;;;;23.88;56.93;99253.75;10521680;28;20202;-78
2021/06/12 15:00:58;;;;;;;3.50;3.20;;;;;;;23.89;58.29;99246.06;10538631;28;20182;-78
2021/06/12 15:06:17;;;;;;;3.50;3.20;;;;;;;23.52;61.22;99272.94;10538505;28;20261;-79
2021/06/12 15:11:36;;;;;;;3.70;2.97;;;;;;;23.16;64.37;99276.03;10537352;28;20166;-76
2021/06/12 15:16:55;;;;;;;3.50;3.20;;;;;;;23.23;63.66;99283.31;10538004;28;20229;-76
2021/06/12 15:22:14;;;;;;;3.53;3.23;;;;;;;22.97;64.63;99285.81;10522924;28;20174;-78
2021/06/12 15:27:34;;;;;;;4.57;2.30;;;;;;;22.68;63.27;99290.50;10537528;28;20178;-79
2021/06/12 15:32:53;;;;;;;5.57;2.63;;;;;;;22.09;65.00;99285.72;10522634;28;20300;-78
2021/06/12 15:38:11;;;;;;;2.70;2.50;;;;;;;22.47;61.46;99285.94;10537787;28;20620;-78
2021/06/12 15:43:31;;;;;;;2.67;2.47;;;;;;;22.94;60.36;99294.44;10545684;28;20628;-78
2021/06/12 15:48:50;;;;;;;2.80;2.57;;;;;;;23.59;60.39;99286.63;10530162;28;20679;-77
2021/06/12 15:54:09;;;;;;;3.60;3.00;;;;;;;24.10;56.71;99290.66;10528131;28;20671;-76
2021/06/12 15:59:28;;;;;;;2.60;2.40;;;;;;;23.90;56.23;99281.34;10545177;28;20182;-77
2021/06/12 16:04:47;;;;;;;3.10;2.80;;;;;;;24.19;57.07;99282.88;10544809;28;20174;-76
2021/06/12 16:10:08;;;;;;;3.27;2.97;;;;;;;24.00;59.21;99286.38;10543460;28;20174;-76
2021/06/12 16:15:26;;;;;;;3.73;3.40;;;;;;;23.96;58.31;99268.94;10544143;28;20205;-76
2021/06/12 16:20:47;;;;;;;4.90;3.30;;;;;;;23.95;56.04;99273.03;10529001;28;20174;-77
2021/06/12 16:26:06;;;;;;;2.53;2.33;;;;;;;24.17;58.03;99270.59;10541741;28;20614;-79
2021/06/12 16:31:25;;;;;;;3.83;2.60;;;;;;;24.49;56.11;99270.38;10543816;28;20177;-75
2021/06/12 16:36:44;;;;;;;3.20;2.90;;;;;;;25.22;54.66;99273.75;10541525;28;20229;-78
2021/06/12 16:42:03;;;;;;;4.70;3.07;;;;;;;25.14;50.81;99279.00;10526770;28;20182;-77
2021/06/12 16:47:24;;;;;;;3.07;2.87;;;;;;;25.26;53.09;99272.25;10543277;28;20209;-77
2021/06/12 16:52:43;;;;;;;4.27;3.87;;;;;;;24.94;51.94;99280.25;10526153;28;20178;-80
2021/06/12 17:03:28;;;;;;;6.40;4.07;;;;;;;25.07;50.88;99282.22;10542025;28;20178;-78
2021/06/12 17:08:47;;;;;;;3.80;3.50;;;;;;;25.30;51.38;99291.75;10540166;28;20257;-79
2021/06/12 17:14:06;;;;;;;4.13;3.27;;;;;;;24.24;53.54;99301.09;10540993;28;20201;-76
2021/06/12 17:19:25;;;;;;;4.23;3.30;;;;;;;24.15;54.54;99299.19;10526421;28;20231;-77
2021/06/12 17:24:43;;;;;;;3.43;3.10;;;;;;;23.88;54.69;99309.94;10540440;28;20174;-79
2021/06/12 17:30:05;;;;;;;3.90;3.60;;;;;;;23.51;56.11;99311.47;10526076;28;20664;-76
2021/06/12 17:35:25;;;;;;;4.40;4.00;;;;;;;23.88;55.41;99311.97;10540726;28;20221;-78
2021/06/12 17:40:44;;;;;;;4.53;4.13;;;;;;;23.84;56.30;99317.00;10538749;28;20233;-78
2021/06/12 17:46:03;;;;;;;3.90;3.60;;;;;;;23.75;55.67;99319.91;10540853;28;20202;-79
2021/06/12 17:51:22;;;;;;;4.00;3.40;;;;;;;23.59;55.50;99329.50;10540570;28;20174;-77
2021/06/12 17:56:41;;;;;;;4.57;3.07;;;;;;;23.39;57.02;99340.59;10537577;28;20206;-78
2021/06/12 18:02:00;;;;;;;3.37;3.13;;;;;;;23.25;58.02;99348.97;10524002;28;20644;-78
2021/06/12 18:07:19;;;;;;;3.90;3.17;;;;;;;23.00;58.68;99346.59;10539917;28;20293;-79
2021/06/12 18:12:38;;;;;;;3.27;2.70;;;;;;;22.89;58.28;99366.00;10539663;28;20368;-79
2021/06/12 18:17:57;;;;;;;2.77;2.57;;;;;;;22.70;56.40;99366.53;10539743;28;20185;-80
2021/06/12 18:23:16;;;;;;;5.60;4.20;;;;;;;22.49;56.76;99375.97;10523126;28;20181;-77
2021/06/12 18:28:35;;;;;;;8.27;4.40;;;;;;;22.30;58.77;99380.06;10539409;28;20177;-80
2021/06/12 18:33:54;;;;;;;5.13;4.63;;;;;;;22.05;59.97;99383.19;10538991;28;20702;-80
2021/06/12 18:39:14;;;;;;;5.73;4.90;;;;;;;21.99;59.56;99385.06;10522441;28;20170;-79
2021/06/12 18:44:32;;;;;;;4.07;3.50;;;;;;;21.97;60.07;99384.75;10523807;28;20248;-79
2021/06/12 18:49:51;;;;;;;7.37;4.80;;;;;;;21.79;60.56;99395.97;10523582;28;20169;-79
2021/06/12 18:55:11;;;;;;;5.80;5.00;;;;;;;21.63;60.32;99405.94;10521815;28;20213;-79
2021/06/12 19:00:31;;;;;;;4.40;4.00;;;;;;;21.50;60.61;99408.84;10538984;28;20177;-80
2021/06/12 19:05:50;;;;;;;5.43;4.63;;;;;;;21.43;61.50;99423.13;10538631;28;20205;-79
2021/06/12 19:11:09;;;;;;;5.47;4.93;;;;;;;21.13;62.84;99434.41;10537255;28;20166;-79
2021/06/12 19:16:28;;;;;;;9.23;5.47;;;;;;;21.05;63.52;99435.91;10530508;28;20197;-80
2021/06/12 19:21:50;;;;;;;5.83;4.57;;;;;;;20.86;64.25;99442.66;10546651;28;20224;-80
2021/06/12 19:27:09;;;;;;;4.47;4.03;;;;;;;20.85;64.47;99454.31;10544883;28;20204;-80
2021/06/12 19:32:28;;;;;;;4.27;3.73;;;;;;;20.73;65.36;99463.53;10546067;28;20181;-76
2021/06/12 19:43:11;;;;;;;4.90;4.40;;;;;;;20.40;67.43;99471.59;10545147;28;20519;-76
2021/06/12 19:48:31;;;;;;;6.60;4.70;;;;;;;20.16;68.76;99470.47;10545624;28;20170;-75
2021/06/12 19:53:51;;;;;;;7.30;5.30;;;;;;;20.00;69.69;99474.69;10528452;28;20292;-78
2021/06/12 19:59:15;;;;;;;6.20;4.70;;;;;;;19.91;69.96;99482.94;10529834;28;20166;-76
2021/06/12 20:04:34;;;;;;;8.63;4.97;;;;;;;19.77;70.75;99486.25;10544914;28;20178;-79
2021/06/12 20:09:53;;;;;;;7.20;5.43;;;;;;;19.59;72.13;99492.41;10543431;28;20173;-79
2021/06/12 20:15:13;;;;;;;8.13;5.80;;;;;;;19.56;71.81;99493.31;10544108;28;20652;-76
2021/06/12 20:20:32;;;;;;;6.53;5.20;;;;;;;19.45;72.81;99497.69;10544339;28;20532;-76
2021/06/12 20:25:54;;;;;;;5.13;4.50;;;;;;;19.20;74.27;99517.22;10542436;28;20174;-75
2021/06/12 20:31:14;;;;;;;4.93;4.20;;;;;;;19.04;74.37;99522.88;10543840;28;20174;-77
2021/06/12 20:36:33;;;;;;;9.63;5.33;;;;;;;19.08;73.74;99531.16;10543011;28;20298;-76
2021/06/12 20:41:52;;;;;;;8.23;4.13;;;;;;;19.01;74.32;99528.56;10541983;28;20182;-76
2021/06/12 20:47:10;;;;;;;4.87;4.40;;;;;;;18.96;74.19;99543.84;10543131;28;20185;-77
2021/06/12 20:52:29;;;;;;;6.60;4.83;;;;;;;18.89;74.74;99549.66;10542714;28;20186;-76
2021/06/12 20:57:49;;;;;;;5.73;3.63;;;;;;;18.86;74.87;99549.75;10526797;28;20568;-77
2021/06/12 21:03:08;;;;;;;4.40;4.00;;;;;;;18.73;75.48;99558.09;10542553;28;20178;-79
2021/06/12 21:08:28;;;;;;;6.87;5.30;;;;;;;18.63;75.78;99570.31;10540297;28;20178;-79
2021/06/12 21:13:47;;;;;;;5.40;4.73;;;;;;;18.55;76.41;99574.50;10542117;28;20210;-78
2021/06/12 21:19:05;;;;;;;6.87;4.57;;;;;;;18.49;75.84;99576.28;10542052;28;20253;-76
2021/06/12 21:24:24;;;;;;;5.67;4.73;;;;;;;18.37;76.43;99583.78;10539089;28;20174;-79
2021/06/12 21:29:43;;;;;;;4.90;4.07;;;;;;;18.04;77.46;99587.81;10541463;28;20177;-79
2021/06/12 21:35:03;;;;;;;5.50;3.70;;;;;;;17.95;76.89;99587.66;10540392;28;20379;-77
2021/06/12 21:40:22;;;;;;;6.60;5.03;;;;;;;17.83;77.51;99594.72;10539284;28;20193;-79
2021/06/12 21:45:41;;;;;;;3.70;3.40;;;;;;;17.67;77.78;99607.84;10525587;28;20178;-80
2021/06/12 21:51:00;;;;;;;2.83;2.53;;;;;;;17.59;77.17;99614.78;10540584;28;20461;-77
2021/06/12 21:56:19;;;;;;;5.47;3.27;;;;;;;17.64;75.93;99617.84;10538767;28;20752;-80
2021/06/12 22:01:38;;;;;;;3.17;2.90;;;;;;;17.55;76.07;99625.22;10540320;28;20182;-77
2021/06/12 22:06:58;;;;;;;3.23;2.93;;;;;;;17.35;76.53;99630.06;10525023;28;20170;-78
2021/06/12 22:12:17;;;;;;;3.23;2.87;;;;;;;17.38;75.83;99631.97;10538730;28;20174;-80
2021/06/12 22:17:36;;;;;;;2.63;2.30;;;;;;;17.20;75.39;99644.66;10538964;28;20201;-77
2021/06/12 22:22:55;;;;;;;2.03;1.60;;;;;;;17.09;74.68;99642.09;10523040;28;20185;-79
2021/06/12 22:28:14;;;;;;;2.73;2.13;;;;;;;17.00;74.39;99658.56;10539381;28;20173;-78
2021/06/12 22:33:34;;;;;;;2.23;2.03;;;;;;;16.99;74.36;99656.22;10539062;28;20213;-78
2021/06/12 22:38:53;;;;;;;2.50;2.30;;;;;;;16.89;75.09;99658.00;10537850;28;20182;-79
2021/06/12 22:44:12;;;;;;;3.47;2.10;;;;;;;16.89;75.01;99669.13;10539217;28;20540;-77
2021/06/12 22:49:31;;;;;;;3.93;2.10;;;;;;;16.94;72.84;99671.41;10532147;28;20205;-76
2021/06/12 22:54:50;;;;;;;2.00;1.90;;;;;;;16.69;74.55;99672.31;10536151;28;20201;-78
2021/06/12 23:00:12;;;;;;;2.30;2.10;;;;;;;16.93;72.41;99669.03;10537413;28;20581;-77
2021/06/12 23:05:32;;;;;;;2.20;1.40;;;;;;;16.94;71.98;99679.75;10537435;28;20210;-77
2021/06/12 23:10:50;;;;;;;2.20;2.00;;;;;;;16.87;71.83;99677.13;10551331;28;20644;-77
2021/06/12 23:16:09;;;;;;;2.00;1.77;;;;;;;16.58;73.31;99685.59;10552036;28;20209;-76
2021/06/12 23:21:28;;;;;;;5.40;1.50;;;;;;;16.52;73.18;99688.06;10537047;28;20556;-77
2021/06/12 23:26:47;;;;;;;2.03;1.83;;;;;;;16.38;74.26;99695.91;10550554;28;20178;-77
2021/06/12 23:32:07;;;;;;;2.60;1.90;;;;;;;16.43;74.11;99700.97;10552298;28;20177;-78
2021/06/12 23:37:26;;;;;;;1.30;1.10;;;;;;;16.30;75.68;99709.09;10551523;28;20612;-79
2021/06/12 23:42:46;;;;;;;5.53;1.80;;;;;;;16.29;77.00;99707.53;10552004;28;20170;-78
2021/06/12 23:48:05;;;;;;;1.93;1.83;;;;;;;16.12;78.73;99714.13;10536374;28;20174;-78
2021/06/12 23:53:24;;;;;;;2.30;1.63;;;;;;;15.78;81.22;99718.22;10534963;28;20174;-77
2021/06/12 23:58:44;;;;;;;1.93;1.60;;;;;;;15.57;83.36;99723.28;10549656;28;20648;-78
